Terminal Aerodrome Forecast
Issued by NWS

Home | Current Version | Previous Version | Text Only | Print | Product List | Glossary On
Versions: 1 2 3 4 5 6 7 8 9 10 11 12 13 14 15 16 17
000
FTUS41 KILN 031500 AAA
TAFLCK
TAF AMD
KLCK 031518Z 0315/0412 13007KT P6SM OVC035
      TEMPO 0316/0317 5SM -FZRA BR OVC022
     FM031700 14008KT 2SM -FZRA BR BKN008 OVC012
     FM031900 18011KT 5SM -SHRA BR BKN018 OVC022
     FM032300 22012G20KT 4SM -SHRA BR BKN008 OVC025
     FM040500 27010KT 4SM -SHRA BR OVC007=

USA.gov is the U.S. government's official web portal to all federal, state and local government web resources and services.